createdAt,value
2022-08-22T00:01:12.085Z,58.14
2022-08-22T00:02:53.912Z,48.30
2022-08-22T00:03:09.033Z,54.42
2022-08-22T00:03:11.262Z,54.34
2022-08-22T00:03:49.524Z,58.37
2022-08-22T00:06:25.156Z,58.40
2022-08-22T00:09:02.931Z,58.84
2022-08-22T00:11:43.282Z,58.55
2022-08-22T00:14:20.850Z,58.50
2022-08-22T00:16:58.095Z,58.48
2022-08-22T00:19:32.207Z,58.22
2022-08-22T00:22:04.262Z,57.91
2022-08-22T00:24:38.543Z,58.01
2022-08-22T00:27:11.688Z,57.99
2022-08-22T00:29:47.036Z,58.32
2022-08-22T00:32:20.498Z,58.76
2022-08-22T00:34:57.034Z,59.17
2022-08-22T00:37:31.645Z,59.12
2022-08-22T00:40:04.568Z,59.13
2022-08-22T00:43:08.394Z,59.10
2022-08-22T00:46:03.961Z,59.22
2022-08-22T00:49:03.604Z,59.15
2022-08-22T00:52:18.656Z,59.28
2022-08-22T00:55:04.468Z,59.57
2022-08-22T00:57:52.625Z,60.00
2022-08-22T01:00:22.977Z,60.06
2022-08-22T01:03:06.326Z,59.73
2022-08-22T01:05:48.993Z,60.00
2022-08-22T01:08:37.151Z,60.00
2022-08-22T01:11:22.618Z,60.03
2022-08-22T01:14:21.022Z,60.27
2022-08-22T01:17:39.132Z,59.99
2022-08-22T01:20:44.604Z,60.03
2022-08-22T01:23:47.855Z,60.01
2022-08-22T01:26:44.704Z,60.07
2022-08-22T01:29:47.883Z,60.03
2022-08-22T01:32:42.890Z,59.94
2022-08-22T01:35:21.287Z,59.91
2022-08-22T01:38:12.803Z,60.10
2022-08-22T01:41:20.996Z,60.31
2022-08-22T01:44:03.631Z,60.19
2022-08-22T01:46:44.625Z,60.39
2022-08-22T01:49:18.812Z,60.61
2022-08-22T01:51:54.716Z,60.78
2022-08-22T01:54:35.782Z,61.13
2022-08-22T01:57:07.762Z,61.13
2022-08-22T01:59:42.455Z,61.20
2022-08-22T02:02:25.057Z,61.19
2022-08-22T02:04:59.120Z,61.19
2022-08-22T02:07:35.129Z,61.56
2022-08-22T02:10:12.621Z,61.50
2022-08-22T02:12:46.567Z,62.02
2022-08-22T02:15:20.280Z,61.94
2022-08-22T02:17:56.559Z,62.07
2022-08-22T02:20:34.168Z,62.33
2022-08-22T02:23:10.257Z,62.44
2022-08-22T02:25:51.830Z,62.42
2022-08-22T02:28:34.044Z,62.68
2022-08-22T02:31:07.173Z,62.63
2022-08-22T02:33:43.697Z,62.98
2022-08-22T02:36:19.766Z,62.71
2022-08-22T02:38:58.790Z,62.58
2022-08-22T02:41:32.226Z,62.52
2022-08-22T02:44:04.379Z,62.65
2022-08-22T02:46:46.921Z,62.62
2022-08-22T02:49:21.598Z,62.52
2022-08-22T02:51:56.624Z,62.56
2022-08-22T02:54:31.391Z,62.24
2022-08-22T02:57:06.641Z,62.56
2022-08-22T03:00:04.305Z,62.24
2022-08-22T03:02:38.857Z,62.47
2022-08-22T03:05:24.463Z,62.73
2022-08-22T03:08:08.160Z,62.98
2022-08-22T03:10:43.816Z,62.62
2022-08-22T03:13:14.606Z,62.85
2022-08-22T03:15:49.978Z,63.33
2022-08-22T03:18:23.825Z,63.52
2022-08-22T03:20:59.036Z,63.18
2022-08-22T03:23:43.273Z,62.69
2022-08-22T03:26:18.307Z,62.93
2022-08-22T03:28:59.009Z,63.15
2022-08-22T03:31:29.994Z,63.15
2022-08-22T03:34:20.288Z,63.38
2022-08-22T03:36:57.819Z,63.59
2022-08-22T03:39:43.856Z,63.83
2022-08-22T03:42:26.168Z,63.71
2022-08-22T03:45:16.098Z,63.79
2022-08-22T03:48:18.294Z,63.83
2022-08-22T03:51:01.667Z,64.20
2022-08-22T03:53:47.258Z,64.63
2022-08-22T03:56:41.735Z,64.67
2022-08-22T03:59:51.725Z,64.99
2022-08-22T04:02:43.101Z,64.78
2022-08-22T04:05:40.767Z,64.47
2022-08-22T04:08:44.865Z,64.56
2022-08-22T04:11:54.265Z,64.57
2022-08-22T04:14:41.605Z,64.77
2022-08-22T04:17:44.280Z,64.75
2022-08-22T04:20:25.037Z,64.99
2022-08-22T04:23:25.196Z,64.98
2022-08-22T04:25:57.336Z,65.04
2022-08-22T04:28:31.547Z,64.76
2022-08-22T04:31:07.445Z,64.89
2022-08-22T04:33:42.139Z,64.85
2022-08-22T04:36:17.667Z,65.06
2022-08-22T04:38:49.421Z,65.17
2022-08-22T04:41:24.441Z,65.00
2022-08-22T04:43:59.496Z,65.03
2022-08-22T04:46:36.933Z,64.99
2022-08-22T04:49:11.721Z,64.32
2022-08-22T04:51:46.155Z,65.20
2022-08-22T04:54:38.488Z,65.32
2022-08-22T04:57:20.083Z,65.65
2022-08-22T04:59:48.321Z,65.80
2022-08-22T05:02:24.833Z,65.31
2022-08-22T05:05:01.621Z,64.97
2022-08-22T05:07:35.983Z,65.08
2022-08-22T05:10:12.197Z,64.73
2022-08-22T05:12:43.809Z,64.40
2022-08-22T05:15:23.571Z,64.14
2022-08-22T05:17:56.911Z,63.96
2022-08-22T05:20:27.075Z,63.88
2022-08-22T05:22:58.663Z,63.13
2022-08-22T05:25:30.748Z,63.48
2022-08-22T05:28:10.612Z,63.09
2022-08-22T05:30:39.321Z,63.46
2022-08-22T05:33:17.402Z,63.10
2022-08-22T05:35:53.442Z,62.75
2022-08-22T05:38:29.987Z,62.54
2022-08-22T05:41:02.767Z,62.29
2022-08-22T05:43:30.402Z,61.16
2022-08-22T05:46:00.226Z,61.04
2022-08-22T05:48:38.608Z,59.93
2022-08-22T05:51:16.825Z,58.25
2022-08-22T05:53:50.371Z,55.34
2022-08-22T05:56:27.327Z,53.91
2022-08-22T05:59:01.591Z,53.33
2022-08-22T06:01:35.398Z,52.43
2022-08-22T06:04:09.335Z,50.70
2022-08-22T06:06:42.483Z,49.00
2022-08-22T06:09:19.005Z,47.92
2022-08-22T06:11:52.494Z,46.46
2022-08-22T06:14:29.739Z,45.40
2022-08-22T06:17:03.775Z,44.29
2022-08-22T06:19:36.273Z,43.75
2022-08-22T06:22:05.970Z,43.38
2022-08-22T06:24:38.095Z,41.37
2022-08-22T06:27:09.813Z,40.66
2022-08-22T06:29:42.502Z,40.23
2022-08-22T06:32:14.233Z,40.02
2022-08-22T06:34:46.718Z,39.42
2022-08-22T06:37:24.428Z,39.26
2022-08-22T06:39:55.014Z,37.75
2022-08-22T06:42:26.159Z,37.31
2022-08-22T06:44:58.371Z,36.71
2022-08-22T06:47:29.744Z,36.19
2022-08-22T06:50:13.793Z,35.67
2022-08-22T06:52:53.227Z,34.80
2022-08-22T06:55:22.810Z,35.28
2022-08-22T06:57:55.705Z,34.91
2022-08-22T07:00:24.412Z,34.98
2022-08-22T07:02:58.146Z,35.12
2022-08-22T07:05:29.513Z,35.30
2022-08-22T07:07:58.044Z,35.60
2022-08-22T07:10:26.300Z,35.45
2022-08-22T07:12:57.370Z,35.59
2022-08-22T07:15:33.984Z,35.03
2022-08-22T07:18:04.355Z,34.51
2022-08-22T07:20:38.614Z,34.07
2022-08-22T07:23:09.348Z,34.41
2022-08-22T07:25:54.269Z,33.71
2022-08-22T07:28:51.259Z,32.15
2022-08-22T07:31:35.485Z,31.60
2022-08-22T07:34:18.950Z,30.68
2022-08-22T07:36:51.531Z,30.03
2022-08-22T07:39:26.533Z,29.49
2022-08-22T07:42:07.901Z,28.99
2022-08-22T07:44:43.391Z,29.44
2022-08-22T07:47:16.355Z,29.31
2022-08-22T07:49:53.937Z,29.47
2022-08-22T07:52:24.719Z,28.81
2022-08-22T07:54:57.786Z,28.84
2022-08-22T07:57:32.602Z,28.58
2022-08-22T08:00:02.918Z,28.31
2022-08-22T08:02:30.916Z,28.45
2022-08-22T08:05:01.255Z,27.96
2022-08-22T08:07:32.201Z,27.54
2022-08-22T08:10:07.956Z,27.11
2022-08-22T08:12:45.047Z,28.00
2022-08-22T08:15:26.901Z,27.95
2022-08-22T08:17:59.787Z,27.23
2022-08-22T08:20:29.509Z,27.33
2022-08-22T08:23:00.194Z,26.43
2022-08-22T08:25:30.310Z,26.83
2022-08-22T08:28:17.083Z,26.64
2022-08-22T08:30:48.210Z,26.76
2022-08-22T08:33:26.366Z,26.27
2022-08-22T08:36:04.767Z,26.10
2022-08-22T08:38:41.040Z,26.11
2022-08-22T08:41:31.396Z,26.08
2022-08-22T08:44:06.905Z,26.52
2022-08-22T08:46:55.901Z,25.62
2022-08-22T08:49:42.154Z,26.04
2022-08-22T08:52:28.713Z,26.11
2022-08-22T08:55:22.033Z,26.74
2022-08-22T08:58:10.235Z,26.92
2022-08-22T09:00:52.136Z,25.59
2022-08-22T09:03:44.439Z,24.80
2022-08-22T09:06:37.696Z,24.68
2022-08-22T09:09:29.616Z,23.97
2022-08-22T09:12:20.151Z,24.25
2022-08-22T09:18:29.001Z,23.82
2022-08-22T09:24:52.406Z,22.91
2022-08-22T09:27:32.866Z,23.37
2022-08-22T09:33:00.993Z,23.40
2022-08-22T09:35:37.621Z,23.13
2022-08-22T09:38:30.489Z,23.41
2022-08-22T09:40:15.957Z,24.46
2022-08-22T09:41:07.612Z,22.75
2022-08-22T09:43:41.871Z,22.64
2022-08-22T09:46:20.513Z,24.13
2022-08-22T09:49:01.157Z,22.69
2022-08-22T09:51:39.610Z,22.46
2022-08-22T09:54:34.147Z,22.15
2022-08-22T09:57:15.763Z,21.48
2022-08-22T10:00:02.611Z,21.57
2022-08-22T10:02:43.594Z,21.75
2022-08-22T10:05:40.981Z,22.43
2022-08-22T10:08:26.356Z,22.31
2022-08-22T10:11:25.966Z,22.30
2022-08-22T10:14:02.475Z,23.69
2022-08-22T10:16:52.968Z,22.60
2022-08-22T10:19:27.383Z,22.93
2022-08-22T10:22:20.095Z,22.51
2022-08-22T10:24:55.369Z,22.71
2022-08-22T10:27:52.144Z,22.64
2022-08-22T10:30:22.841Z,23.02
2022-08-22T10:33:00.168Z,24.61
2022-08-22T10:35:34.026Z,25.38
2022-08-22T10:38:10.613Z,26.56
2022-08-22T10:40:43.317Z,26.87
2022-08-22T10:43:15.566Z,26.85
2022-08-22T10:45:47.783Z,25.27
2022-08-22T10:48:35.092Z,24.84
2022-08-22T10:51:15.139Z,24.29
2022-08-22T10:53:58.582Z,23.93
2022-08-22T10:56:33.973Z,26.11
2022-08-22T10:59:13.684Z,25.96
2022-08-22T11:01:50.023Z,25.25
2022-08-22T11:04:31.804Z,26.21
2022-08-22T11:07:14.616Z,26.21
2022-08-22T11:09:44.404Z,26.28
2022-08-22T11:12:23.320Z,26.21
2022-08-22T11:15:12.047Z,26.79
2022-08-22T11:18:22.361Z,25.48
2022-08-22T11:21:00.357Z,26.62
2022-08-22T11:23:40.605Z,26.82
2022-08-22T11:26:23.060Z,27.18
2022-08-22T11:29:22.826Z,27.42
2022-08-22T11:32:01.435Z,26.49
2022-08-22T11:34:52.524Z,26.30
2022-08-22T11:37:43.316Z,25.88
2022-08-22T11:40:23.298Z,25.67
2022-08-22T11:43:03.131Z,26.45
2022-08-22T11:45:40.401Z,26.67
2022-08-22T11:48:18.720Z,27.04
2022-08-22T11:50:52.369Z,27.01
2022-08-22T11:53:28.292Z,26.12
2022-08-22T11:56:08.651Z,26.20
2022-08-22T11:58:51.467Z,26.44
2022-08-22T12:01:23.720Z,26.80
2022-08-22T12:04:03.388Z,26.42
2022-08-22T12:06:56.870Z,26.45
2022-08-22T12:09:35.869Z,26.26
2022-08-22T12:12:32.424Z,26.38
2022-08-22T12:15:08.971Z,27.79
2022-08-22T12:18:01.890Z,27.15
2022-08-22T12:20:52.396Z,26.52
2022-08-22T12:23:43.610Z,26.49
2022-08-22T12:26:28.960Z,26.58
2022-08-22T12:29:23.324Z,27.22
2022-08-22T12:32:44.019Z,26.89
2022-08-22T12:35:30.530Z,27.96
2022-08-22T12:38:26.621Z,27.62
2022-08-22T12:41:13.835Z,27.25
2022-08-22T12:44:06.635Z,26.77
2022-08-22T12:46:48.240Z,27.33
2022-08-22T12:49:31.794Z,27.81
2022-08-22T12:52:16.765Z,28.63
2022-08-22T12:55:09.576Z,29.30
2022-08-22T12:57:45.571Z,28.22
2022-08-22T13:00:30.209Z,28.09
2022-08-22T13:03:03.112Z,28.00
2022-08-22T13:05:40.960Z,27.39
2022-08-22T13:08:13.284Z,27.00
2022-08-22T13:10:47.403Z,27.05
2022-08-22T13:13:31.753Z,28.79
2022-08-22T13:16:09.532Z,28.56
2022-08-22T13:18:47.579Z,27.87
2022-08-22T13:21:28.849Z,28.01
2022-08-22T13:24:10.612Z,27.49
2022-08-22T13:26:49.219Z,28.46
2022-08-22T13:29:26.081Z,27.62
2022-08-22T13:32:01.980Z,27.80
2022-08-22T13:34:39.808Z,27.78
2022-08-22T13:37:12.561Z,27.38
2022-08-22T13:39:44.755Z,27.43
2022-08-22T13:42:20.183Z,27.56
2022-08-22T13:44:59.511Z,27.05
2022-08-22T13:47:34.549Z,27.48
2022-08-22T13:50:11.148Z,27.35
2022-08-22T13:52:52.215Z,26.66
2022-08-22T13:55:30.015Z,26.88
2022-08-22T13:58:02.405Z,26.99
2022-08-22T14:01:07.284Z,27.04
2022-08-22T14:03:42.973Z,27.10
2022-08-22T14:06:36.950Z,26.49
2022-08-22T14:09:15.037Z,27.04
2022-08-22T14:11:49.381Z,26.94
2022-08-22T14:14:25.116Z,27.25
2022-08-22T14:16:55.911Z,27.68
2022-08-22T14:19:35.040Z,27.42
2022-08-22T14:22:32.003Z,27.51
2022-08-22T14:25:07.248Z,27.88
2022-08-22T14:27:39.881Z,28.35
2022-08-22T14:30:16.079Z,29.13
2022-08-22T14:32:48.977Z,28.83
2022-08-22T14:35:35.083Z,29.11
2022-08-22T14:38:17.484Z,29.14
2022-08-22T14:40:46.329Z,29.03
2022-08-22T14:43:22.434Z,29.42
2022-08-22T14:45:57.194Z,29.86
2022-08-22T14:48:40.561Z,29.50
2022-08-22T14:51:18.363Z,29.45
2022-08-22T14:53:49.981Z,29.55
2022-08-22T14:56:22.583Z,29.64
2022-08-22T14:58:54.412Z,29.86
2022-08-22T15:01:25.350Z,29.51
2022-08-22T15:03:57.517Z,29.90
2022-08-22T15:06:36.728Z,30.14
2022-08-22T15:09:08.403Z,29.51
2022-08-22T15:11:42.189Z,30.04
2022-08-22T15:14:21.807Z,30.03
2022-08-22T15:16:56.049Z,29.87
2022-08-22T15:19:28.579Z,29.93
2022-08-22T15:22:15.833Z,30.35
2022-08-22T15:24:48.429Z,30.50
2022-08-22T15:27:19.829Z,30.45
2022-08-22T15:29:51.506Z,30.27
2022-08-22T15:32:22.667Z,30.32
2022-08-22T15:35:03.239Z,30.30
2022-08-22T15:37:34.895Z,30.15
2022-08-22T15:40:12.040Z,30.23
2022-08-22T15:42:44.791Z,30.37
2022-08-22T15:45:22.310Z,30.45
2022-08-22T15:47:53.060Z,30.11
2022-08-22T15:50:31.856Z,30.31
2022-08-22T15:53:16.022Z,30.31
2022-08-22T15:56:19.901Z,30.34
2022-08-22T15:58:50.629Z,30.84
2022-08-22T16:01:22.346Z,30.17
2022-08-22T16:03:57.174Z,31.08
2022-08-22T16:06:44.925Z,31.60
